sensor_id;sensor_type;location;lat;lon;timestamp;pressure;altitude;pressure_sealevel;temperature;humidity
10958;BME280;5531;42.570;23.676;2022-11-04T00:01:48;92215.78;;;9.53;82.33
10958;BME280;5531;42.570;23.676;2022-11-04T00:04:19;92212.38;;;9.38;83.25
10958;BME280;5531;42.570;23.676;2022-11-04T00:06:49;92216.38;;;9.34;83.36
10958;BME280;5531;42.570;23.676;2022-11-04T00:09:20;92220.16;;;9.31;83.68
10958;BME280;5531;42.570;23.676;2022-11-04T00:11:50;92210.69;;;9.30;83.93
10958;BME280;5531;42.570;23.676;2022-11-04T00:14:40;92212.66;;;9.28;84.28
10958;BME280;5531;42.570;23.676;2022-11-04T00:17:12;92208.47;;;9.27;84.17
10958;BME280;5531;42.570;23.676;2022-11-04T00:19:44;92207.09;;;9.31;83.60
10958;BME280;5531;42.570;23.676;2022-11-04T00:22:26;92204.75;;;9.22;84.02
10958;BME280;5531;42.570;23.676;2022-11-04T00:25:10;92201.44;;;9.13;84.87
10958;BME280;5531;42.570;23.676;2022-11-04T00:27:51;92198.56;;;9.08;85.12
10958;BME280;5531;42.570;23.676;2022-11-04T00:30:32;92195.56;;;9.11;84.99
10958;BME280;5531;42.570;23.676;2022-11-04T00:33:04;92181.72;;;8.95;86.01
10958;BME280;5531;42.570;23.676;2022-11-04T00:35:49;92182.63;;;9.03;85.81
10958;BME280;5531;42.570;23.676;2022-11-04T00:38:18;92183.72;;;8.93;86.18
10958;BME280;5531;42.570;23.676;2022-11-04T00:40:47;92188.59;;;8.96;86.55
10958;BME280;5531;42.570;23.676;2022-11-04T00:43:16;92185.16;;;8.96;86.76
10958;BME280;5531;42.570;23.676;2022-11-04T00:45:45;92178.75;;;8.98;86.76
10958;BME280;5531;42.570;23.676;2022-11-04T00:48:17;92183.72;;;8.93;87.82
10958;BME280;5531;42.570;23.676;2022-11-04T00:50:46;92185.78;;;8.98;87.57
10958;BME280;5531;42.570;23.676;2022-11-04T00:53:14;92180.19;;;9.01;87.28
10958;BME280;5531;42.570;23.676;2022-11-04T00:55:43;92180.84;;;9.03;87.51
10958;BME280;5531;42.570;23.676;2022-11-04T00:58:13;92175.34;;;8.98;87.60
10958;BME280;5531;42.570;23.676;2022-11-04T01:00:42;92176.75;;;9.01;87.86
10958;BME280;5531;42.570;23.676;2022-11-04T01:03:16;92164.06;;;8.97;87.73
10958;BME280;5531;42.570;23.676;2022-11-04T01:05:45;92170.84;;;8.92;88.35
10958;BME280;5531;42.570;23.676;2022-11-04T01:08:14;92169.22;;;8.91;88.74
10958;BME280;5531;42.570;23.676;2022-11-04T01:10:43;92166.41;;;8.92;89.02
10958;BME280;5531;42.570;23.676;2022-11-04T01:13:13;92157.78;;;8.92;88.79
10958;BME280;5531;42.570;23.676;2022-11-04T01:15:42;92156.94;;;8.91;89.06
10958;BME280;5531;42.570;23.676;2022-11-04T01:18:11;92153.53;;;8.91;89.65
10958;BME280;5531;42.570;23.676;2022-11-04T01:20:43;92147.88;;;8.87;89.47
10958;BME280;5531;42.570;23.676;2022-11-04T01:23:12;92146.88;;;8.88;90.31
10958;BME280;5531;42.570;23.676;2022-11-04T01:25:41;92140.84;;;8.88;90.41
10958;BME280;5531;42.570;23.676;2022-11-04T01:28:10;92144.63;;;8.85;90.33
10958;BME280;5531;42.570;23.676;2022-11-04T01:30:40;92139.22;;;8.72;91.49
10958;BME280;5531;42.570;23.676;2022-11-04T01:33:09;92132.66;;;8.76;90.87
10958;BME280;5531;42.570;23.676;2022-11-04T01:35:38;92136.19;;;8.68;91.70
10958;BME280;5531;42.570;23.676;2022-11-04T01:38:10;92128.78;;;8.72;91.47
10958;BME280;5531;42.570;23.676;2022-11-04T01:40:39;92133.13;;;8.65;92.47
10958;BME280;5531;42.570;23.676;2022-11-04T01:43:13;92133.03;;;8.58;92.29
10958;BME280;5531;42.570;23.676;2022-11-04T01:45:45;92126.66;;;8.60;92.36
10958;BME280;5531;42.570;23.676;2022-11-04T01:48:19;92124.69;;;8.62;92.30
10958;BME280;5531;42.570;23.676;2022-11-04T01:50:50;92121.88;;;8.64;93.24
10958;BME280;5531;42.570;23.676;2022-11-04T01:53:26;92118.09;;;8.52;93.39
10958;BME280;5531;42.570;23.676;2022-11-04T01:55:58;92106.78;;;8.44;94.05
10958;BME280;5531;42.570;23.676;2022-11-04T01:58:31;92108.66;;;8.51;93.95
10958;BME280;5531;42.570;23.676;2022-11-04T02:01:01;92116.22;;;8.46;94.36
10958;BME280;5531;42.570;23.676;2022-11-04T02:03:33;92107.22;;;8.48;94.84
10958;BME280;5531;42.570;23.676;2022-11-04T02:06:03;92115.59;;;8.43;94.76
10958;BME280;5531;42.570;23.676;2022-11-04T02:08:37;92109.22;;;8.46;94.76
10958;BME280;5531;42.570;23.676;2022-11-04T02:11:06;92110.50;;;8.42;95.89
10958;BME280;5531;42.570;23.676;2022-11-04T02:13:36;92106.66;;;8.38;96.30
10958;BME280;5531;42.570;23.676;2022-11-04T02:16:08;92106.66;;;8.38;96.35
10958;BME280;5531;42.570;23.676;2022-11-04T02:18:53;92106.38;;;8.33;96.85
10958;BME280;5531;42.570;23.676;2022-11-04T02:22:04;92097.63;;;8.40;96.95
10958;BME280;5531;42.570;23.676;2022-11-04T02:25:00;92104.66;;;8.40;96.64
10958;BME280;5531;42.570;23.676;2022-11-04T02:30:31;92104.94;;;8.30;97.74
10958;BME280;5531;42.570;23.676;2022-11-04T02:33:13;92108.00;;;8.34;98.18
10958;BME280;5531;42.570;23.676;2022-11-04T02:35:53;92096.66;;;8.26;98.79
10958;BME280;5531;42.570;23.676;2022-11-04T02:38:31;92107.19;;;8.33;98.31
10958;BME280;5531;42.570;23.676;2022-11-04T02:41:11;92101.53;;;8.30;97.95
10958;BME280;5531;42.570;23.676;2022-11-04T02:43:48;92106.09;;;8.27;98.21
10958;BME280;5531;42.570;23.676;2022-11-04T02:46:25;92097.91;;;8.16;98.79
10958;BME280;5531;42.570;23.676;2022-11-04T02:49:05;92100.78;;;8.06;99.79
10958;BME280;5531;42.570;23.676;2022-11-04T02:51:39;92107.91;;;8.12;99.85
10958;BME280;5531;42.570;23.676;2022-11-04T02:54:11;92103.84;;;8.10;100.00
10958;BME280;5531;42.570;23.676;2022-11-04T02:56:45;92104.78;;;8.17;100.00
10958;BME280;5531;42.570;23.676;2022-11-04T02:59:18;92100.97;;;8.19;99.96
10958;BME280;5531;42.570;23.676;2022-11-04T03:01:52;92100.72;;;8.14;100.00
10958;BME280;5531;42.570;23.676;2022-11-04T03:04:27;92104.22;;;8.06;100.00
10958;BME280;5531;42.570;23.676;2022-11-04T03:06:58;92105.56;;;8.02;100.00
10958;BME280;5531;42.570;23.676;2022-11-04T03:09:30;92100.63;;;8.07;100.00
10958;BME280;5531;42.570;23.676;2022-11-04T03:12:04;92096.38;;;8.06;100.00
10958;BME280;5531;42.570;23.676;2022-11-04T03:14:37;92100.44;;;8.09;100.00
10958;BME280;5531;42.570;23.676;2022-11-04T03:17:14;92108.63;;;8.06;100.00
10958;BME280;5531;42.570;23.676;2022-11-04T03:19:51;92100.53;;;8.01;100.00
10958;BME280;5531;42.570;23.676;2022-11-04T03:22:25;92098.97;;;8.06;100.00
10958;BME280;5531;42.570;23.676;2022-11-04T03:24:55;92097.22;;;8.07;100.00
10958;BME280;5531;42.570;23.676;2022-11-04T03:27:30;92098.28;;;7.98;100.00
10958;BME280;5531;42.570;23.676;2022-11-04T03:30:03;92096.81;;;7.95;100.00
10958;BME280;5531;42.570;23.676;2022-11-04T03:32:41;92093.75;;;7.92;100.00
10958;BME280;5531;42.570;23.676;2022-11-04T03:35:13;92085.13;;;7.91;100.00
10958;BME280;5531;42.570;23.676;2022-11-04T03:37:44;92093.94;;;7.90;100.00
10958;BME280;5531;42.570;23.676;2022-11-04T03:40:15;92097.19;;;7.92;100.00
10958;BME280;5531;42.570;23.676;2022-11-04T03:42:54;92103.13;;;7.86;100.00
10958;BME280;5531;42.570;23.676;2022-11-04T03:45:25;92097.81;;;7.79;100.00
10958;BME280;5531;42.570;23.676;2022-11-04T03:47:57;92095.38;;;7.78;100.00
10958;BME280;5531;42.570;23.676;2022-11-04T03:50:28;92088.53;;;7.77;100.00
10958;BME280;5531;42.570;23.676;2022-11-04T03:52:58;92097.28;;;7.84;100.00
10958;BME280;5531;42.570;23.676;2022-11-04T03:55:31;92090.16;;;7.78;100.00
10958;BME280;5531;42.570;23.676;2022-11-04T03:58:09;92093.28;;;7.73;100.00
10958;BME280;5531;42.570;23.676;2022-11-04T04:00:46;92097.59;;;7.66;100.00
10958;BME280;5531;42.570;23.676;2022-11-04T04:03:23;92092.66;;;7.71;100.00
10958;BME280;5531;42.570;23.676;2022-11-04T04:05:58;92093.91;;;7.75;100.00
10958;BME280;5531;42.570;23.676;2022-11-04T04:08:36;92094.63;;;7.69;100.00
10958;BME280;5531;42.570;23.676;2022-11-04T04:11:11;92095.91;;;7.73;100.00
10958;BME280;5531;42.570;23.676;2022-11-04T04:13:51;92093.28;;;7.73;100.00
10958;BME280;5531;42.570;23.676;2022-11-04T04:16:26;92089.72;;;7.74;100.00
10958;BME280;5531;42.570;23.676;2022-11-04T04:19:03;92091.06;;;7.85;100.00
10958;BME280;5531;42.570;23.676;2022-11-04T04:21:39;92081.34;;;7.79;100.00
10958;BME280;5531;42.570;23.676;2022-11-04T04:24:11;92081.16;;;7.80;100.00
10958;BME280;5531;42.570;23.676;2022-11-04T04:27:07;92082.00;;;7.81;100.00
10958;BME280;5531;42.570;23.676;2022-11-04T04:29:49;92080.53;;;7.78;100.00
10958;BME280;5531;42.570;23.676;2022-11-04T04:32:20;92088.63;;;7.83;100.00
10958;BME280;5531;42.570;23.676;2022-11-04T04:34:53;92089.47;;;7.84;100.00
10958;BME280;5531;42.570;23.676;2022-11-04T04:37:43;92085.50;;;7.88;100.00
10958;BME280;5531;42.570;23.676;2022-11-04T04:40:16;92077.66;;;7.88;100.00
10958;BME280;5531;42.570;23.676;2022-11-04T04:43:00;92078.75;;;7.94;100.00
10958;BME280;5531;42.570;23.676;2022-11-04T04:45:42;92077.50;;;7.89;100.00
10958;BME280;5531;42.570;23.676;2022-11-04T04:48:16;92078.13;;;7.92;100.00
10958;BME280;5531;42.570;23.676;2022-11-04T04:50:50;92080.91;;;7.90;100.00
10958;BME280;5531;42.570;23.676;2022-11-04T04:53:22;92077.75;;;7.95;100.00
10958;BME280;5531;42.570;23.676;2022-11-04T04:55:51;92079.75;;;7.93;100.00
10958;BME280;5531;42.570;23.676;2022-11-04T04:58:20;92082.78;;;7.96;100.00
10958;BME280;5531;42.570;23.676;2022-11-04T05:00:49;92073.72;;;7.92;100.00
10958;BME280;5531;42.570;23.676;2022-11-04T05:03:18;92074.00;;;7.97;100.00
10958;BME280;5531;42.570;23.676;2022-11-04T05:05:50;92076.97;;;7.94;100.00
10958;BME280;5531;42.570;23.676;2022-11-04T05:08:19;92084.78;;;7.94;100.00
10958;BME280;5531;42.570;23.676;2022-11-04T05:10:48;92076.44;;;7.99;100.00
10958;BME280;5531;42.570;23.676;2022-11-04T05:13:17;92074.78;;;7.98;100.00
10958;BME280;5531;42.570;23.676;2022-11-04T05:15:55;92076.44;;;7.99;100.00
10958;BME280;5531;42.570;23.676;2022-11-04T05:18:25;92079.66;;;8.01;100.00
10958;BME280;5531;42.570;23.676;2022-11-04T05:20:57;92083.25;;;8.00;100.00
10958;BME280;5531;42.570;23.676;2022-11-04T05:23:26;92083.72;;;8.03;100.00
10958;BME280;5531;42.570;23.676;2022-11-04T05:25:57;92085.59;;;8.10;100.00
10958;BME280;5531;42.570;23.676;2022-11-04T05:28:26;92087.31;;;8.17;100.00
10958;BME280;5531;42.570;23.676;2022-11-04T05:30:56;92093.69;;;8.30;100.00
10958;BME280;5531;42.570;23.676;2022-11-04T05:33:25;92093.22;;;8.26;100.00
10958;BME280;5531;42.570;23.676;2022-11-04T05:36:04;92095.66;;;8.27;100.00
10958;BME280;5531;42.570;23.676;2022-11-04T05:38:33;92100.53;;;8.31;100.00
10958;BME280;5531;42.570;23.676;2022-11-04T05:41:03;92099.72;;;8.30;100.00
10958;BME280;5531;42.570;23.676;2022-11-04T05:43:33;92097.19;;;8.37;100.00
10958;BME280;5531;42.570;23.676;2022-11-04T05:46:03;92102.34;;;8.45;100.00
10958;BME280;5531;42.570;23.676;2022-11-04T05:48:32;92099.56;;;8.47;100.00
10958;BME280;5531;42.570;23.676;2022-11-04T05:51:04;92095.78;;;8.49;100.00
10958;BME280;5531;42.570;23.676;2022-11-04T05:53:33;92099.56;;;8.47;100.00
10958;BME280;5531;42.570;23.676;2022-11-04T05:56:02;92103.22;;;8.52;100.00
10958;BME280;5531;42.570;23.676;2022-11-04T05:58:31;92105.66;;;8.54;100.00
10958;BME280;5531;42.570;23.676;2022-11-04T06:01:22;92100.09;;;8.57;100.00
10958;BME280;5531;42.570;23.676;2022-11-04T06:03:52;92104.41;;;8.65;100.00
10958;BME280;5531;42.570;23.676;2022-11-04T06:06:25;92105.66;;;8.69;100.00
10958;BME280;5531;42.570;23.676;2022-11-04T06:08:55;92111.50;;;8.71;100.00
10958;BME280;5531;42.570;23.676;2022-11-04T06:11:26;92113.59;;;8.75;100.00
10958;BME280;5531;42.570;23.676;2022-11-04T06:13:56;92116.19;;;8.75;100.00
10958;BME280;5531;42.570;23.676;2022-11-04T06:16:26;92132.75;;;8.68;100.00
10958;BME280;5531;42.570;23.676;2022-11-04T06:18:55;92132.16;;;8.66;100.00
10958;BME280;5531;42.570;23.676;2022-11-04T06:21:28;92125.56;;;8.70;100.00
10958;BME280;5531;42.570;23.676;2022-11-04T06:23:59;92126.16;;;8.72;100.00
10958;BME280;5531;42.570;23.676;2022-11-04T06:26:28;92128.25;;;8.76;100.00
10958;BME280;5531;42.570;23.676;2022-11-04T06:28:58;92122.56;;;8.73;100.00
10958;BME280;5531;42.570;23.676;2022-11-04T06:31:27;92131.22;;;8.73;100.00
10958;BME280;5531;42.570;23.676;2022-11-04T06:33:56;92126.16;;;8.72;100.00
10958;BME280;5531;42.570;23.676;2022-11-04T06:36:28;92130.59;;;8.71;100.00
10958;BME280;5531;42.570;23.676;2022-11-04T06:38:57;92132.75;;;8.68;100.00
10958;BME280;5531;42.570;23.676;2022-11-04T06:41:26;92135.03;;;8.71;100.00
10958;BME280;5531;42.570;23.676;2022-11-04T06:43:55;92121.16;;;8.70;100.00
10958;BME280;5531;42.570;23.676;2022-11-04T06:46:26;92123.19;;;8.75;100.00
10958;BME280;5531;42.570;23.676;2022-11-04T06:48:56;92121.50;;;8.82;100.00
10958;BME280;5531;42.570;23.676;2022-11-04T06:51:27;92123.09;;;8.83;100.00
10958;BME280;5531;42.570;23.676;2022-11-04T06:53:57;92126.59;;;8.90;100.00
10958;BME280;5531;42.570;23.676;2022-11-04T06:56:26;92126.59;;;8.90;100.00
10958;BME280;5531;42.570;23.676;2022-11-04T06:58:55;92122.91;;;8.85;100.00
10958;BME280;5531;42.570;23.676;2022-11-04T07:01:26;92127.16;;;8.86;100.00
10958;BME280;5531;42.570;23.676;2022-11-04T07:03:56;92120.38;;;8.91;100.00
10958;BME280;5531;42.570;23.676;2022-11-04T07:06:29;92124.25;;;8.95;100.00
10958;BME280;5531;42.570;23.676;2022-11-04T07:08:59;92117.94;;;9.05;100.00
10958;BME280;5531;42.570;23.676;2022-11-04T07:11:30;92117.69;;;9.21;100.00
10958;BME280;5531;42.570;23.676;2022-11-04T07:14:00;92114.00;;;9.15;100.00
10958;BME280;5531;42.570;23.676;2022-11-04T07:16:29;92114.66;;;9.17;100.00
10958;BME280;5531;42.570;23.676;2022-11-04T07:18:58;92107.53;;;9.11;100.00
10958;BME280;5531;42.570;23.676;2022-11-04T07:21:29;92115.19;;;9.13;100.00
10958;BME280;5531;42.570;23.676;2022-11-04T07:24:00;92107.44;;;9.20;100.00
10958;BME280;5531;42.570;23.676;2022-11-04T07:26:29;92104.25;;;9.24;100.00
10958;BME280;5531;42.570;23.676;2022-11-04T07:28:58;92106.50;;;9.27;100.00
10958;BME280;5531;42.570;23.676;2022-11-04T07:31:27;92102.31;;;9.33;100.00
10958;BME280;5531;42.570;23.676;2022-11-04T07:33:56;92105.72;;;9.33;100.00
10958;BME280;5531;42.570;23.676;2022-11-04T07:36:25;92096.06;;;9.27;100.00
10958;BME280;5531;42.570;23.676;2022-11-04T07:38:56;92088.00;;;9.29;100.00
10958;BME280;5531;42.570;23.676;2022-11-04T07:41:26;92084.88;;;9.40;100.00
10958;BME280;5531;42.570;23.676;2022-11-04T07:43:55;92085.53;;;9.42;100.00
10958;BME280;5531;42.570;23.676;2022-11-04T07:46:25;92090.81;;;9.49;100.00
10958;BME280;5531;42.570;23.676;2022-11-04T07:48:56;92081.66;;;9.38;100.00
10958;BME280;5531;42.570;23.676;2022-11-04T07:51:26;92067.97;;;9.36;100.00
10958;BME280;5531;42.570;23.676;2022-11-04T07:53:59;92081.47;;;9.40;100.00
10958;BME280;5531;42.570;23.676;2022-11-04T07:56:29;92078.91;;;9.46;100.00
10958;BME280;5531;42.570;23.676;2022-11-04T07:58:58;92068.50;;;9.53;100.00
10958;BME280;5531;42.570;23.676;2022-11-04T08:01:27;92066.56;;;9.62;100.00
10958;BME280;5531;42.570;23.676;2022-11-04T08:03:58;92069.09;;;9.77;100.00
10958;BME280;5531;42.570;23.676;2022-11-04T08:06:27;92070.13;;;9.82;100.00
10958;BME280;5531;42.570;23.676;2022-11-04T08:09:00;92073.84;;;9.95;100.00
10958;BME280;5531;42.570;23.676;2022-11-04T08:11:29;92076.22;;;9.89;100.00
10958;BME280;5531;42.570;23.676;2022-11-04T08:14:02;92080.69;;;9.96;100.00
10958;BME280;5531;42.570;23.676;2022-11-04T08:16:32;92079.13;;;10.01;100.00
10958;BME280;5531;42.570;23.676;2022-11-04T08:19:01;92082.91;;;9.99;100.00
10958;BME280;5531;42.570;23.676;2022-11-04T08:21:31;92075.66;;;9.94;100.00
10958;BME280;5531;42.570;23.676;2022-11-04T08:24:04;92069.84;;;9.99;100.00
10958;BME280;5531;42.570;23.676;2022-11-04T08:26:33;92057.53;;;9.93;100.00
10958;BME280;5531;42.570;23.676;2022-11-04T08:29:05;92065.31;;;9.86;100.00
10958;BME280;5531;42.570;23.676;2022-11-04T08:31:35;92070.47;;;10.01;100.00
10958;BME280;5531;42.570;23.676;2022-11-04T08:34:04;92062.97;;;9.91;100.00
10958;BME280;5531;42.570;23.676;2022-11-04T08:36:35;92070.47;;;10.01;100.00
10958;BME280;5531;42.570;23.676;2022-11-04T08:39:08;92063.22;;;10.03;100.00
10958;BME280;5531;42.570;23.676;2022-11-04T08:41:39;92060.75;;;9.95;100.00
10958;BME280;5531;42.570;23.676;2022-11-04T08:44:11;92058.78;;;10.03;100.00
10958;BME280;5531;42.570;23.676;2022-11-04T08:46:42;92066.53;;;10.18;100.00
10958;BME280;5531;42.570;23.676;2022-11-04T08:49:14;92059.72;;;10.24;99.10
10958;BME280;5531;42.570;23.676;2022-11-04T08:51:44;92057.34;;;10.29;98.11
10958;BME280;5531;42.570;23.676;2022-11-04T08:54:24;92058.00;;;10.38;97.73
10958;BME280;5531;42.570;23.676;2022-11-04T08:56:54;92050.59;;;10.41;98.10
10958;BME280;5531;42.570;23.676;2022-11-04T08:59:23;92053.06;;;10.56;97.94
10958;BME280;5531;42.570;23.676;2022-11-04T09:01:53;92043.66;;;10.75;96.63
10958;BME280;5531;42.570;23.676;2022-11-04T09:04:22;92039.66;;;10.86;95.78
10958;BME280;5531;42.570;23.676;2022-11-04T09:06:51;92040.09;;;11.03;94.50
10958;BME280;5531;42.570;23.676;2022-11-04T09:09:23;92033.66;;;11.12;93.86
10958;BME280;5531;42.570;23.676;2022-11-04T09:11:52;92038.72;;;11.27;92.88
10958;BME280;5531;42.570;23.676;2022-11-04T09:14:21;92039.97;;;11.38;91.82
10958;BME280;5531;42.570;23.676;2022-11-04T09:16:51;92027.84;;;11.50;91.41
10958;BME280;5531;42.570;23.676;2022-11-04T09:19:21;92037.75;;;11.75;90.38
10958;BME280;5531;42.570;23.676;2022-11-04T09:21:50;92030.06;;;11.80;89.35
10958;BME280;5531;42.570;23.676;2022-11-04T09:24:19;92013.53;;;11.86;88.85
10958;BME280;5531;42.570;23.676;2022-11-04T09:26:51;92018.59;;;11.95;88.41
10958;BME280;5531;42.570;23.676;2022-11-04T09:29:20;92018.16;;;11.78;88.36
10958;BME280;5531;42.570;23.676;2022-11-04T09:31:49;92011.28;;;11.83;88.89
10958;BME280;5531;42.570;23.676;2022-11-04T09:34:18;92011.28;;;11.90;88.03
10958;BME280;5531;42.570;23.676;2022-11-04T09:36:47;91998.38;;;12.02;87.46
10958;BME280;5531;42.570;23.676;2022-11-04T09:39:16;91995.84;;;12.27;86.62
10958;BME280;5531;42.570;23.676;2022-11-04T09:41:55;92005.94;;;12.37;86.17
10958;BME280;5531;42.570;23.676;2022-11-04T09:44:29;91993.97;;;12.47;85.84
10958;BME280;5531;42.570;23.676;2022-11-04T09:47:02;91992.13;;;12.55;84.52
10958;BME280;5531;42.570;23.676;2022-11-04T09:49:34;91985.69;;;12.51;84.68
10958;BME280;5531;42.570;23.676;2022-11-04T09:52:10;91980.22;;;12.52;84.89
10958;BME280;5531;42.570;23.676;2022-11-04T09:54:49;91971.88;;;12.62;84.66
10958;BME280;5531;42.570;23.676;2022-11-04T09:57:22;91962.34;;;12.68;83.68
10958;BME280;5531;42.570;23.676;2022-11-04T09:59:51;91964.09;;;12.80;83.44
10958;BME280;5531;42.570;23.676;2022-11-04T10:02:41;91956.44;;;13.11;81.74
10958;BME280;5531;42.570;23.676;2022-11-04T10:05:27;91958.25;;;13.10;81.72
10958;BME280;5531;42.570;23.676;2022-11-04T10:08:16;91954.53;;;13.18;81.20
10958;BME280;5531;42.570;23.676;2022-11-04T10:10:54;91949.34;;;13.11;80.76
10958;BME280;5531;42.570;23.676;2022-11-04T10:13:43;91947.66;;;12.92;81.77
10958;BME280;5531;42.570;23.676;2022-11-04T10:16:25;91934.00;;;12.76;82.67
10958;BME280;5531;42.570;23.676;2022-11-04T10:19:07;91944.22;;;12.91;82.51
10958;BME280;5531;42.570;23.676;2022-11-04T10:21:46;91935.63;;;13.34;81.16
10958;BME280;5531;42.570;23.676;2022-11-04T10:24:19;91931.00;;;13.55;80.19
10958;BME280;5531;42.570;23.676;2022-11-04T10:26:55;91924.59;;;13.69;78.44
10958;BME280;5531;42.570;23.676;2022-11-04T10:29:32;91919.81;;;14.03;77.88
10958;BME280;5531;42.570;23.676;2022-11-04T10:32:12;91916.09;;;14.41;75.87
10958;BME280;5531;42.570;23.676;2022-11-04T10:34:45;91915.41;;;14.16;75.78
10958;BME280;5531;42.570;23.676;2022-11-04T10:37:15;91911.94;;;14.34;75.94
10958;BME280;5531;42.570;23.676;2022-11-04T10:39:46;91901.38;;;14.52;74.49
10958;BME280;5531;42.570;23.676;2022-11-04T10:42:18;91898.28;;;14.74;74.11
10958;BME280;5531;42.570;23.676;2022-11-04T10:44:51;91899.31;;;14.84;73.02
10958;BME280;5531;42.570;23.676;2022-11-04T10:47:30;91895.50;;;14.69;72.83
10958;BME280;5531;42.570;23.676;2022-11-04T10:50:23;91887.81;;;14.67;72.94
10958;BME280;5531;42.570;23.676;2022-11-04T10:52:54;91896.34;;;14.81;72.23
10958;BME280;5531;42.570;23.676;2022-11-04T10:55:37;91887.22;;;14.65;73.34
10958;BME280;5531;42.570;23.676;2022-11-04T10:58:16;91878.69;;;14.81;72.52
10958;BME280;5531;42.570;23.676;2022-11-04T11:00:49;91875.97;;;14.88;72.71
10958;BME280;5531;42.570;23.676;2022-11-04T11:03:25;91869.91;;;14.99;71.35
10958;BME280;5531;42.570;23.676;2022-11-04T11:06:09;91871.50;;;15.12;70.56
10958;BME280;5531;42.570;23.676;2022-11-04T11:08:40;91874.97;;;15.13;70.53
10958;BME280;5531;42.570;23.676;2022-11-04T11:11:11;91862.13;;;15.16;70.60
10958;BME280;5531;42.570;23.676;2022-11-04T11:13:42;91856.63;;;15.18;70.00
10958;BME280;5531;42.570;23.676;2022-11-04T11:16:17;91855.94;;;15.23;70.15
10958;BME280;5531;42.570;23.676;2022-11-04T11:19:12;91842.50;;;15.36;69.54
10958;BME280;5531;42.570;23.676;2022-11-04T11:21:44;91836.66;;;15.34;69.79
10958;BME280;5531;42.570;23.676;2022-11-04T11:24:17;91838.38;;;15.52;69.08
10958;BME280;5531;42.570;23.676;2022-11-04T11:26:48;91842.50;;;15.60;68.67
10958;BME280;5531;42.570;23.676;2022-11-04T11:29:22;91843.84;;;15.74;68.34
10958;BME280;5531;42.570;23.676;2022-11-04T11:31:56;91837.56;;;15.87;68.34
10958;BME280;5531;42.570;23.676;2022-11-04T11:34:28;91831.91;;;16.07;66.97
10958;BME280;5531;42.570;23.676;2022-11-04T11:37:00;91833.41;;;16.31;66.60
10958;BME280;5531;42.570;23.676;2022-11-04T11:39:31;91818.69;;;16.07;66.38
10958;BME280;5531;42.570;23.676;2022-11-04T11:42:03;91823.22;;;16.23;67.13
10958;BME280;5531;42.570;23.676;2022-11-04T11:44:34;91815.75;;;16.20;66.36
10958;BME280;5531;42.570;23.676;2022-11-04T11:47:19;91810.00;;;16.23;66.13
10958;BME280;5531;42.570;23.676;2022-11-04T11:50:04;91815.63;;;16.27;65.91
10958;BME280;5531;42.570;23.676;2022-11-04T11:52:35;91820.16;;;16.43;65.06
10958;BME280;5531;42.570;23.676;2022-11-04T11:55:11;91815.16;;;16.30;64.33
10958;BME280;5531;42.570;23.676;2022-11-04T11:57:48;91800.13;;;16.19;65.02
10958;BME280;5531;42.570;23.676;2022-11-04T12:00:20;91787.00;;;16.24;65.22
10958;BME280;5531;42.570;23.676;2022-11-04T12:03:05;91795.41;;;16.49;64.21
10958;BME280;5531;42.570;23.676;2022-11-04T12:05:43;91780.56;;;16.20;65.08
10958;BME280;5531;42.570;23.676;2022-11-04T12:08:32;91780.09;;;16.23;64.81
10958;BME280;5531;42.570;23.676;2022-11-04T12:11:08;91778.28;;;16.23;65.04
10958;BME280;5531;42.570;23.676;2022-11-04T12:13:44;91774.63;;;16.41;64.40
10958;BME280;5531;42.570;23.676;2022-11-04T12:16:24;91763.25;;;16.41;64.08
10958;BME280;5531;42.570;23.676;2022-11-04T12:19:13;91766.28;;;16.33;63.76
10958;BME280;5531;42.570;23.676;2022-11-04T12:21:47;91766.97;;;16.28;64.51
10958;BME280;5531;42.570;23.676;2022-11-04T12:24:29;91784.13;;;15.97;65.01
10958;BME280;5531;42.570;23.676;2022-11-04T12:27:06;91766.00;;;15.88;65.96
10958;BME280;5531;42.570;23.676;2022-11-04T12:29:47;91773.16;;;15.76;66.81
10958;BME280;5531;42.570;23.676;2022-11-04T12:32:26;91769.56;;;15.70;66.69
10958;BME280;5531;42.570;23.676;2022-11-04T12:35:15;91770.94;;;15.85;65.82
10958;BME280;5531;42.570;23.676;2022-11-04T12:37:58;91757.06;;;15.66;66.76
10958;BME280;5531;42.570;23.676;2022-11-04T12:40:33;91760.31;;;15.44;66.32
10958;BME280;5531;42.570;23.676;2022-11-04T12:43:19;91764.47;;;15.40;66.88
10958;BME280;5531;42.570;23.676;2022-11-04T12:46:03;91763.09;;;15.37;67.09
10958;BME280;5531;42.570;23.676;2022-11-04T12:48:51;91760.25;;;15.27;67.35
10958;BME280;5531;42.570;23.676;2022-11-04T12:51:32;91750.63;;;15.09;67.78
10958;BME280;5531;42.570;23.676;2022-11-04T12:54:27;91746.56;;;15.18;67.56
10958;BME280;5531;42.570;23.676;2022-11-04T12:57:08;91756.00;;;15.14;67.64
10958;BME280;5531;42.570;23.676;2022-11-04T13:00:00;91743.25;;;15.23;67.13
10958;BME280;5531;42.570;23.676;2022-11-04T13:02:37;91754.03;;;15.33;67.53
10958;BME280;5531;42.570;23.676;2022-11-04T13:05:22;91753.19;;;15.56;67.00
10958;BME280;5531;42.570;23.676;2022-11-04T13:07:58;91759.50;;;15.79;65.23
10958;BME280;5531;42.570;23.676;2022-11-04T13:10:37;91760.28;;;15.80;65.74
10958;BME280;5531;42.570;23.676;2022-11-04T13:13:09;91761.75;;;15.75;65.26
10958;BME280;5531;42.570;23.676;2022-11-04T13:15:44;91765.19;;;15.88;65.25
10958;BME280;5531;42.570;23.676;2022-11-04T13:18:17;91756.47;;;15.87;65.17
10958;BME280;5531;42.570;23.676;2022-11-04T13:20:50;91757.31;;;15.76;64.79
10958;BME280;5531;42.570;23.676;2022-11-04T13:23:27;91749.13;;;15.66;65.62
10958;BME280;5531;42.570;23.676;2022-11-04T13:26:00;91759.34;;;15.86;65.05
10958;BME280;5531;42.570;23.676;2022-11-04T13:28:33;91752.03;;;15.76;64.80
10958;BME280;5531;42.570;23.676;2022-11-04T13:31:09;91754.31;;;15.61;65.58
10958;BME280;5531;42.570;23.676;2022-11-04T13:33:45;91759.03;;;15.58;65.07
10958;BME280;5531;42.570;23.676;2022-11-04T13:36:38;91754.69;;;15.52;65.78
10958;BME280;5531;42.570;23.676;2022-11-04T13:39:16;91753.19;;;15.45;65.67
10958;BME280;5531;42.570;23.676;2022-11-04T13:44:54;91751.97;;;15.12;67.15